sensor_id;sensor_type;location;lat;lon;timestamp;P1;durP1;ratioP1;P2;durP2;ratioP2
37131;SDS011;23035;50.032;21.978;2022-11-15T00:05:37;26.98;;;10.63;;
37131;SDS011;23035;50.032;21.978;2022-11-15T00:11:01;27.67;;;16.42;;
37131;SDS011;23035;50.032;21.978;2022-11-15T00:16:25;24.85;;;10.45;;
37131;SDS011;23035;50.032;21.978;2022-11-15T00:21:48;15.25;;;8.90;;
37131;SDS011;23035;50.032;21.978;2022-11-15T00:27:11;31.02;;;10.93;;
37131;SDS011;23035;50.032;21.978;2022-11-15T00:32:35;25.33;;;9.32;;
37131;SDS011;23035;50.032;21.978;2022-11-15T00:38:01;28.08;;;10.45;;
37131;SDS011;23035;50.032;21.978;2022-11-15T00:43:24;24.73;;;12.55;;
37131;SDS011;23035;50.032;21.978;2022-11-15T00:48:47;28.70;;;10.23;;
37131;SDS011;23035;50.032;21.978;2022-11-15T00:54:12;34.38;;;10.50;;
37131;SDS011;23035;50.032;21.978;2022-11-15T00:59:36;32.70;;;11.70;;
37131;SDS011;23035;50.032;21.978;2022-11-15T01:04:59;41.00;;;13.15;;
37131;SDS011;23035;50.032;21.978;2022-11-15T01:10:23;59.85;;;14.48;;
37131;SDS011;23035;50.032;21.978;2022-11-15T01:15:46;46.03;;;12.98;;
37131;SDS011;23035;50.032;21.978;2022-11-15T01:21:11;59.97;;;11.27;;
37131;SDS011;23035;50.032;21.978;2022-11-15T01:26:37;16.52;;;8.25;;
37131;SDS011;23035;50.032;21.978;2022-11-15T01:32:00;60.90;;;11.02;;
37131;SDS011;23035;50.032;21.978;2022-11-15T01:37:23;113.13;;;10.25;;
37131;SDS011;23035;50.032;21.978;2022-11-15T01:42:50;41.00;;;10.57;;
37131;SDS011;23035;50.032;21.978;2022-11-15T01:48:13;96.82;;;11.43;;
37131;SDS011;23035;50.032;21.978;2022-11-15T01:53:36;26.75;;;12.95;;
37131;SDS011;23035;50.032;21.978;2022-11-15T01:59:05;30.67;;;12.65;;
37131;SDS011;23035;50.032;21.978;2022-11-15T02:04:31;22.10;;;10.73;;
37131;SDS011;23035;50.032;21.978;2022-11-15T02:09:54;34.22;;;12.95;;
37131;SDS011;23035;50.032;21.978;2022-11-15T02:15:21;45.33;;;10.05;;
37131;SDS011;23035;50.032;21.978;2022-11-15T02:20:56;35.47;;;12.45;;
37131;SDS011;23035;50.032;21.978;2022-11-15T02:32:26;25.73;;;10.48;;
37131;SDS011;23035;50.032;21.978;2022-11-15T02:37:56;41.47;;;10.45;;
37131;SDS011;23035;50.032;21.978;2022-11-15T02:43:24;34.70;;;11.50;;
37131;SDS011;23035;50.032;21.978;2022-11-15T02:49:10;40.03;;;13.25;;
37131;SDS011;23035;50.032;21.978;2022-11-15T02:54:35;31.20;;;13.50;;
37131;SDS011;23035;50.032;21.978;2022-11-15T03:00:02;51.17;;;11.73;;
37131;SDS011;23035;50.032;21.978;2022-11-15T03:05:33;35.33;;;12.70;;
37131;SDS011;23035;50.032;21.978;2022-11-15T03:11:03;43.72;;;13.57;;
37131;SDS011;23035;50.032;21.978;2022-11-15T03:16:32;48.83;;;13.38;;
37131;SDS011;23035;50.032;21.978;2022-11-15T03:21:59;93.13;;;14.25;;
37131;SDS011;23035;50.032;21.978;2022-11-15T03:27:27;46.90;;;14.60;;
37131;SDS011;23035;50.032;21.978;2022-11-15T03:32:56;66.15;;;14.20;;
37131;SDS011;23035;50.032;21.978;2022-11-15T03:38:24;77.38;;;14.90;;
37131;SDS011;23035;50.032;21.978;2022-11-15T03:43:52;141.93;;;11.52;;
37131;SDS011;23035;50.032;21.978;2022-11-15T03:49:19;96.68;;;13.88;;
37131;SDS011;23035;50.032;21.978;2022-11-15T03:54:50;49.38;;;11.73;;
37131;SDS011;23035;50.032;21.978;2022-11-15T04:00:15;93.38;;;15.07;;
37131;SDS011;23035;50.032;21.978;2022-11-15T04:05:38;84.15;;;11.27;;
37131;SDS011;23035;50.032;21.978;2022-11-15T04:11:03;100.95;;;12.60;;
37131;SDS011;23035;50.032;21.978;2022-11-15T04:16:25;45.38;;;13.13;;
37131;SDS011;23035;50.032;21.978;2022-11-15T04:21:49;92.03;;;13.57;;
37131;SDS011;23035;50.032;21.978;2022-11-15T04:27:30;69.93;;;10.57;;
37131;SDS011;23035;50.032;21.978;2022-11-15T04:32:53;59.53;;;11.77;;
37131;SDS011;23035;50.032;21.978;2022-11-15T04:38:16;91.53;;;12.32;;
37131;SDS011;23035;50.032;21.978;2022-11-15T04:43:41;107.88;;;10.95;;
37131;SDS011;23035;50.032;21.978;2022-11-15T04:49:07;56.00;;;10.40;;
37131;SDS011;23035;50.032;21.978;2022-11-15T04:54:33;47.28;;;8.63;;
37131;SDS011;23035;50.032;21.978;2022-11-15T04:59:59;87.07;;;10.20;;
37131;SDS011;23035;50.032;21.978;2022-11-15T05:05:25;58.10;;;9.65;;
37131;SDS011;23035;50.032;21.978;2022-11-15T05:10:51;103.38;;;9.68;;
37131;SDS011;23035;50.032;21.978;2022-11-15T05:16:18;117.45;;;10.82;;
37131;SDS011;23035;50.032;21.978;2022-11-15T05:21:47;102.07;;;13.48;;
37131;SDS011;23035;50.032;21.978;2022-11-15T05:27:12;56.58;;;10.25;;
37131;SDS011;23035;50.032;21.978;2022-11-15T05:32:43;46.53;;;10.43;;
37131;SDS011;23035;50.032;21.978;2022-11-15T05:38:09;20.70;;;9.27;;
37131;SDS011;23035;50.032;21.978;2022-11-15T05:43:34;30.83;;;12.07;;
37131;SDS011;23035;50.032;21.978;2022-11-15T05:49:05;38.55;;;12.23;;
37131;SDS011;23035;50.032;21.978;2022-11-15T05:54:35;37.78;;;13.85;;
37131;SDS011;23035;50.032;21.978;2022-11-15T06:00:03;25.10;;;10.13;;
37131;SDS011;23035;50.032;21.978;2022-11-15T06:05:29;35.80;;;10.40;;
37131;SDS011;23035;50.032;21.978;2022-11-15T06:10:55;26.98;;;9.88;;
37131;SDS011;23035;50.032;21.978;2022-11-15T06:16:21;13.73;;;5.80;;
37131;SDS011;23035;50.032;21.978;2022-11-15T06:21:48;14.77;;;7.30;;
37131;SDS011;23035;50.032;21.978;2022-11-15T06:27:15;11.57;;;5.72;;
37131;SDS011;23035;50.032;21.978;2022-11-15T06:32:40;13.87;;;6.00;;
37131;SDS011;23035;50.032;21.978;2022-11-15T06:38:08;12.75;;;6.28;;
37131;SDS011;23035;50.032;21.978;2022-11-15T06:43:35;13.25;;;5.60;;
37131;SDS011;23035;50.032;21.978;2022-11-15T06:48:58;10.57;;;6.38;;
37131;SDS011;23035;50.032;21.978;2022-11-15T06:54:29;11.93;;;5.93;;
37131;SDS011;23035;50.032;21.978;2022-11-15T06:59:52;11.18;;;6.90;;
37131;SDS011;23035;50.032;21.978;2022-11-15T07:05:16;17.98;;;7.07;;
37131;SDS011;23035;50.032;21.978;2022-11-15T07:10:40;12.68;;;8.18;;
37131;SDS011;23035;50.032;21.978;2022-11-15T07:16:06;14.95;;;9.75;;
37131;SDS011;23035;50.032;21.978;2022-11-15T07:21:32;21.23;;;11.77;;
37131;SDS011;23035;50.032;21.978;2022-11-15T07:26:57;23.17;;;9.70;;
37131;SDS011;23035;50.032;21.978;2022-11-15T07:32:21;16.55;;;7.10;;
37131;SDS011;23035;50.032;21.978;2022-11-15T07:37:52;13.27;;;7.32;;
37131;SDS011;23035;50.032;21.978;2022-11-15T07:43:19;22.05;;;11.95;;
37131;SDS011;23035;50.032;21.978;2022-11-15T07:48:42;22.20;;;8.23;;
37131;SDS011;23035;50.032;21.978;2022-11-15T07:54:06;14.77;;;7.72;;
37131;SDS011;23035;50.032;21.978;2022-11-15T07:59:33;32.78;;;12.43;;
37131;SDS011;23035;50.032;21.978;2022-11-15T08:04:57;32.05;;;9.23;;
37131;SDS011;23035;50.032;21.978;2022-11-15T08:10:22;18.58;;;8.82;;
37131;SDS011;23035;50.032;21.978;2022-11-15T08:15:49;23.85;;;9.50;;
37131;SDS011;23035;50.032;21.978;2022-11-15T08:21:19;34.67;;;12.77;;
37131;SDS011;23035;50.032;21.978;2022-11-15T08:26:45;19.55;;;11.00;;
37131;SDS011;23035;50.032;21.978;2022-11-15T08:32:09;24.35;;;11.98;;
37131;SDS011;23035;50.032;21.978;2022-11-15T08:37:32;40.28;;;20.13;;
37131;SDS011;23035;50.032;21.978;2022-11-15T08:42:55;36.78;;;17.85;;
37131;SDS011;23035;50.032;21.978;2022-11-15T08:48:22;20.83;;;12.03;;
37131;SDS011;23035;50.032;21.978;2022-11-15T08:53:47;42.53;;;21.55;;
37131;SDS011;23035;50.032;21.978;2022-11-15T08:59:12;28.00;;;15.73;;
37131;SDS011;23035;50.032;21.978;2022-11-15T09:04:38;26.60;;;12.63;;
37131;SDS011;23035;50.032;21.978;2022-11-15T09:10:04;40.00;;;21.30;;
37131;SDS011;23035;50.032;21.978;2022-11-15T09:15:30;34.55;;;17.38;;
37131;SDS011;23035;50.032;21.978;2022-11-15T09:20:57;49.85;;;24.38;;
37131;SDS011;23035;50.032;21.978;2022-11-15T09:26:21;20.65;;;11.65;;
37131;SDS011;23035;50.032;21.978;2022-11-15T09:31:43;71.95;;;34.10;;
37131;SDS011;23035;50.032;21.978;2022-11-15T09:37:08;15.25;;;9.50;;
37131;SDS011;23035;50.032;21.978;2022-11-15T09:42:34;18.52;;;8.40;;
37131;SDS011;23035;50.032;21.978;2022-11-15T09:48:14;15.15;;;8.85;;
37131;SDS011;23035;50.032;21.978;2022-11-15T09:53:55;17.63;;;9.88;;
37131;SDS011;23035;50.032;21.978;2022-11-15T10:04:52;17.33;;;10.00;;
37131;SDS011;23035;50.032;21.978;2022-11-15T10:10:11;22.67;;;13.73;;
37131;SDS011;23035;50.032;21.978;2022-11-15T10:15:21;24.48;;;13.93;;
37131;SDS011;23035;50.032;21.978;2022-11-15T10:20:26;24.70;;;13.02;;
37131;SDS011;23035;50.032;21.978;2022-11-15T10:25:33;60.78;;;31.50;;
37131;SDS011;23035;50.032;21.978;2022-11-15T10:30:40;17.48;;;9.70;;
37131;SDS011;23035;50.032;21.978;2022-11-15T10:35:45;17.30;;;9.65;;
37131;SDS011;23035;50.032;21.978;2022-11-15T10:41:12;13.18;;;9.38;;
37131;SDS011;23035;50.032;21.978;2022-11-15T10:46:18;20.75;;;12.30;;
37131;SDS011;23035;50.032;21.978;2022-11-15T10:51:46;16.02;;;10.40;;
37131;SDS011;23035;50.032;21.978;2022-11-15T10:56:54;16.58;;;8.60;;
37131;SDS011;23035;50.032;21.978;2022-11-15T11:02:01;20.40;;;12.15;;
37131;SDS011;23035;50.032;21.978;2022-11-15T11:07:08;20.77;;;10.10;;
37131;SDS011;23035;50.032;21.978;2022-11-15T11:12:29;20.85;;;11.23;;
37131;SDS011;23035;50.032;21.978;2022-11-15T11:17:38;29.40;;;12.93;;
37131;SDS011;23035;50.032;21.978;2022-11-15T11:22:59;28.77;;;14.50;;
37131;SDS011;23035;50.032;21.978;2022-11-15T11:28:17;25.02;;;12.77;;
37131;SDS011;23035;50.032;21.978;2022-11-15T11:33:30;20.83;;;11.45;;
37131;SDS011;23035;50.032;21.978;2022-11-15T11:38:44;20.17;;;10.95;;
37131;SDS011;23035;50.032;21.978;2022-11-15T11:44:02;20.98;;;10.98;;
37131;SDS011;23035;50.032;21.978;2022-11-15T11:49:18;21.50;;;10.65;;
37131;SDS011;23035;50.032;21.978;2022-11-15T11:54:29;13.50;;;8.45;;
37131;SDS011;23035;50.032;21.978;2022-11-15T11:59:41;15.68;;;9.45;;
37131;SDS011;23035;50.032;21.978;2022-11-15T12:05:01;14.07;;;8.45;;
37131;SDS011;23035;50.032;21.978;2022-11-15T12:10:19;12.23;;;7.93;;
37131;SDS011;23035;50.032;21.978;2022-11-15T12:15:29;15.23;;;8.60;;
37131;SDS011;23035;50.032;21.978;2022-11-15T12:20:40;21.33;;;10.32;;
37131;SDS011;23035;50.032;21.978;2022-11-15T12:25:55;17.77;;;9.95;;
37131;SDS011;23035;50.032;21.978;2022-11-15T12:31:05;16.55;;;9.07;;
37131;SDS011;23035;50.032;21.978;2022-11-15T12:36:30;17.15;;;9.73;;
37131;SDS011;23035;50.032;21.978;2022-11-15T12:41:40;13.90;;;9.18;;
37131;SDS011;23035;50.032;21.978;2022-11-15T12:47:01;18.73;;;8.70;;
37131;SDS011;23035;50.032;21.978;2022-11-15T12:52:08;16.02;;;8.77;;
37131;SDS011;23035;50.032;21.978;2022-11-15T13:02:33;14.73;;;9.27;;
37131;SDS011;23035;50.032;21.978;2022-11-15T13:07:56;19.95;;;10.10;;
37131;SDS011;23035;50.032;21.978;2022-11-15T13:13:02;16.63;;;9.85;;
37131;SDS011;23035;50.032;21.978;2022-11-15T13:23:44;19.55;;;9.60;;
37131;SDS011;23035;50.032;21.978;2022-11-15T13:28:50;15.95;;;9.05;;
37131;SDS011;23035;50.032;21.978;2022-11-15T13:34:00;23.92;;;10.13;;
37131;SDS011;23035;50.032;21.978;2022-11-15T13:39:26;16.75;;;8.95;;
37131;SDS011;23035;50.032;21.978;2022-11-15T13:44:33;17.35;;;9.90;;
37131;SDS011;23035;50.032;21.978;2022-11-15T13:49:40;18.75;;;10.23;;
37131;SDS011;23035;50.032;21.978;2022-11-15T13:54:46;35.78;;;10.90;;
37131;SDS011;23035;50.032;21.978;2022-11-15T13:59:59;17.17;;;9.32;;
37131;SDS011;23035;50.032;21.978;2022-11-15T14:05:15;28.58;;;13.88;;
37131;SDS011;23035;50.032;21.978;2022-11-15T14:10:24;30.08;;;15.15;;
37131;SDS011;23035;50.032;21.978;2022-11-15T14:15:32;37.63;;;19.33;;
37131;SDS011;23035;50.032;21.978;2022-11-15T14:20:39;40.03;;;20.05;;
37131;SDS011;23035;50.032;21.978;2022-11-15T14:25:51;30.02;;;18.58;;
37131;SDS011;23035;50.032;21.978;2022-11-15T14:30:57;39.63;;;20.38;;
37131;SDS011;23035;50.032;21.978;2022-11-15T14:36:10;42.95;;;20.77;;
37131;SDS011;23035;50.032;21.978;2022-11-15T14:41:20;40.10;;;20.38;;
37131;SDS011;23035;50.032;21.978;2022-11-15T14:46:26;33.28;;;19.75;;
37131;SDS011;23035;50.032;21.978;2022-11-15T14:51:32;58.00;;;24.75;;
37131;SDS011;23035;50.032;21.978;2022-11-15T14:56:45;86.03;;;22.55;;
37131;SDS011;23035;50.032;21.978;2022-11-15T15:01:55;100.70;;;45.25;;
37131;SDS011;23035;50.032;21.978;2022-11-15T15:07:05;45.88;;;23.65;;
37131;SDS011;23035;50.032;21.978;2022-11-15T15:17:24;50.65;;;23.40;;
37131;SDS011;23035;50.032;21.978;2022-11-15T15:22:29;50.63;;;24.58;;
37131;SDS011;23035;50.032;21.978;2022-11-15T15:27:34;73.45;;;32.63;;
37131;SDS011;23035;50.032;21.978;2022-11-15T15:32:38;73.93;;;33.08;;
37131;SDS011;23035;50.032;21.978;2022-11-15T15:37:44;36.22;;;18.60;;
37131;SDS011;23035;50.032;21.978;2022-11-15T15:42:49;42.58;;;19.48;;
37131;SDS011;23035;50.032;21.978;2022-11-15T15:47:54;43.63;;;21.65;;
37131;SDS011;23035;50.032;21.978;2022-11-15T15:53:01;85.47;;;40.60;;
37131;SDS011;23035;50.032;21.978;2022-11-15T15:58:09;57.03;;;29.30;;
37131;SDS011;23035;50.032;21.978;2022-11-15T16:03:13;50.15;;;21.95;;
37131;SDS011;23035;50.032;21.978;2022-11-15T16:08:20;61.08;;;27.00;;
37131;SDS011;23035;50.032;21.978;2022-11-15T16:13:26;43.92;;;20.83;;
37131;SDS011;23035;50.032;21.978;2022-11-15T16:18:31;44.38;;;22.30;;
37131;SDS011;23035;50.032;21.978;2022-11-15T16:23:37;43.40;;;21.17;;
37131;SDS011;23035;50.032;21.978;2022-11-15T16:33:46;51.97;;;25.70;;
37131;SDS011;23035;50.032;21.978;2022-11-15T16:38:51;60.03;;;28.77;;
37131;SDS011;23035;50.032;21.978;2022-11-15T16:50:48;48.92;;;24.95;;
37131;SDS011;23035;50.032;21.978;2022-11-15T16:55:55;42.15;;;22.27;;
37131;SDS011;23035;50.032;21.978;2022-11-15T17:00:59;48.20;;;21.65;;
37131;SDS011;23035;50.032;21.978;2022-11-15T17:06:06;53.63;;;24.27;;
37131;SDS011;23035;50.032;21.978;2022-11-15T17:11:12;38.05;;;20.73;;
37131;SDS011;23035;50.032;21.978;2022-11-15T17:16:18;50.72;;;25.02;;
37131;SDS011;23035;50.032;21.978;2022-11-15T17:21:24;40.90;;;19.02;;
37131;SDS011;23035;50.032;21.978;2022-11-15T17:26:35;38.85;;;21.10;;
37131;SDS011;23035;50.032;21.978;2022-11-15T17:31:42;43.58;;;20.92;;
37131;SDS011;23035;50.032;21.978;2022-11-15T17:36:48;67.65;;;34.25;;
37131;SDS011;23035;50.032;21.978;2022-11-15T17:41:52;42.80;;;21.08;;
37131;SDS011;23035;50.032;21.978;2022-11-15T17:46:57;28.77;;;14.93;;
37131;SDS011;23035;50.032;21.978;2022-11-15T17:52:03;74.00;;;40.00;;
37131;SDS011;23035;50.032;21.978;2022-11-15T17:57:07;107.55;;;52.97;;
37131;SDS011;23035;50.032;21.978;2022-11-15T18:02:11;41.67;;;20.15;;
37131;SDS011;23035;50.032;21.978;2022-11-15T18:07:17;40.53;;;21.02;;
37131;SDS011;23035;50.032;21.978;2022-11-15T18:17:26;55.38;;;27.77;;
37131;SDS011;23035;50.032;21.978;2022-11-15T18:22:33;55.55;;;27.73;;
37131;SDS011;23035;50.032;21.978;2022-11-15T18:32:42;198.18;;;89.47;;
37131;SDS011;23035;50.032;21.978;2022-11-15T18:37:47;83.38;;;40.75;;
37131;SDS011;23035;50.032;21.978;2022-11-15T18:42:55;53.03;;;29.08;;
37131;SDS011;23035;50.032;21.978;2022-11-15T18:48:08;42.75;;;23.85;;
37131;SDS011;23035;50.032;21.978;2022-11-15T18:53:36;48.15;;;25.73;;
37131;SDS011;23035;50.032;21.978;2022-11-15T18:58:43;97.10;;;47.33;;
37131;SDS011;23035;50.032;21.978;2022-11-15T19:03:52;63.40;;;32.25;;
37131;SDS011;23035;50.032;21.978;2022-11-15T19:09:01;58.00;;;31.25;;
37131;SDS011;23035;50.032;21.978;2022-11-15T19:14:11;66.05;;;32.97;;
37131;SDS011;23035;50.032;21.978;2022-11-15T19:19:21;62.33;;;30.67;;
37131;SDS011;23035;50.032;21.978;2022-11-15T19:24:33;50.92;;;28.73;;
37131;SDS011;23035;50.032;21.978;2022-11-15T19:29:44;53.08;;;28.40;;
37131;SDS011;23035;50.032;21.978;2022-11-15T19:34:49;45.15;;;25.50;;
37131;SDS011;23035;50.032;21.978;2022-11-15T19:40:04;43.35;;;23.50;;
37131;SDS011;23035;50.032;21.978;2022-11-15T19:45:21;40.63;;;21.42;;
37131;SDS011;23035;50.032;21.978;2022-11-15T19:50:35;40.08;;;21.80;;
37131;SDS011;23035;50.032;21.978;2022-11-15T19:56:02;45.20;;;21.17;;
37131;SDS011;23035;50.032;21.978;2022-11-15T20:01:18;36.25;;;17.40;;
37131;SDS011;23035;50.032;21.978;2022-11-15T20:06:33;42.25;;;21.50;;
37131;SDS011;23035;50.032;21.978;2022-11-15T20:17:16;40.22;;;21.42;;
37131;SDS011;23035;50.032;21.978;2022-11-15T20:22:33;38.05;;;19.70;;
37131;SDS011;23035;50.032;21.978;2022-11-15T20:28:19;39.58;;;20.23;;
37131;SDS011;23035;50.032;21.978;2022-11-15T20:34:12;41.50;;;20.83;;
37131;SDS011;23035;50.032;21.978;2022-11-15T20:39:31;46.25;;;22.85;;
37131;SDS011;23035;50.032;21.978;2022-11-15T20:44:49;47.65;;;23.08;;
37131;SDS011;23035;50.032;21.978;2022-11-15T20:55:38;48.08;;;24.85;;
37131;SDS011;23035;50.032;21.978;2022-11-15T21:00:46;43.13;;;23.25;;
37131;SDS011;23035;50.032;21.978;2022-11-15T21:05:51;47.38;;;22.60;;
37131;SDS011;23035;50.032;21.978;2022-11-15T21:10:56;33.47;;;19.33;;
37131;SDS011;23035;50.032;21.978;2022-11-15T21:16:19;25.52;;;15.20;;
37131;SDS011;23035;50.032;21.978;2022-11-15T21:21:23;30.95;;;19.00;;
37131;SDS011;23035;50.032;21.978;2022-11-15T21:26:28;35.55;;;17.38;;
37131;SDS011;23035;50.032;21.978;2022-11-15T21:31:33;24.67;;;13.80;;
37131;SDS011;23035;50.032;21.978;2022-11-15T21:36:38;26.73;;;14.00;;
37131;SDS011;23035;50.032;21.978;2022-11-15T21:41:43;24.67;;;14.15;;
37131;SDS011;23035;50.032;21.978;2022-11-15T21:46:49;15.65;;;9.38;;
37131;SDS011;23035;50.032;21.978;2022-11-15T21:51:53;25.60;;;13.88;;
37131;SDS011;23035;50.032;21.978;2022-11-15T21:56:57;27.98;;;16.48;;
37131;SDS011;23035;50.032;21.978;2022-11-15T22:02:03;19.65;;;10.05;;
37131;SDS011;23035;50.032;21.978;2022-11-15T22:07:19;19.65;;;11.20;;
37131;SDS011;23035;50.032;21.978;2022-11-15T22:12:24;17.38;;;10.30;;
37131;SDS011;23035;50.032;21.978;2022-11-15T22:17:33;19.38;;;10.05;;
37131;SDS011;23035;50.032;21.978;2022-11-15T22:23:00;21.55;;;10.63;;
37131;SDS011;23035;50.032;21.978;2022-11-15T22:28:05;17.73;;;10.00;;
37131;SDS011;23035;50.032;21.978;2022-11-15T22:33:11;15.57;;;9.43;;
37131;SDS011;23035;50.032;21.978;2022-11-15T22:38:16;15.80;;;8.40;;
37131;SDS011;23035;50.032;21.978;2022-11-15T22:43:21;15.02;;;8.10;;
37131;SDS011;23035;50.032;21.978;2022-11-15T22:48:28;15.32;;;8.52;;
37131;SDS011;23035;50.032;21.978;2022-11-15T22:53:37;15.60;;;9.07;;
37131;SDS011;23035;50.032;21.978;2022-11-15T22:58:42;16.60;;;9.07;;
37131;SDS011;23035;50.032;21.978;2022-11-15T23:03:48;15.15;;;9.15;;
37131;SDS011;23035;50.032;21.978;2022-11-15T23:08:52;16.67;;;9.95;;
37131;SDS011;23035;50.032;21.978;2022-11-15T23:13:56;12.30;;;8.77;;
37131;SDS011;23035;50.032;21.978;2022-11-15T23:19:03;15.90;;;10.05;;
37131;SDS011;23035;50.032;21.978;2022-11-15T23:24:09;14.55;;;9.27;;
37131;SDS011;23035;50.032;21.978;2022-11-15T23:29:15;14.60;;;9.32;;
37131;SDS011;23035;50.032;21.978;2022-11-15T23:34:23;15.80;;;9.00;;
37131;SDS011;23035;50.032;21.978;2022-11-15T23:39:27;16.63;;;9.75;;
37131;SDS011;23035;50.032;21.978;2022-11-15T23:44:32;14.80;;;9.20;;
37131;SDS011;23035;50.032;21.978;2022-11-15T23:49:37;13.52;;;8.68;;
37131;SDS011;23035;50.032;21.978;2022-11-15T23:59:46;13.52;;;9.18;;
